Time;durP1;ratioP1;P1;durP2;ratioP2;P2;SDS_P1;SDS_P2;PMS_P1;PMS_P2;Temp;Humidity;BMP_temperature;BMP_pressure;BME280_temperature;BME280_humidity;BME280_pressure;Samples;Min_cycle;Max_cycle;Signal;HPM_P1;HPM_P2
2023/03/06 00:02:01;;;;;;;0.80;0.80;;;2.10;99.90;;;;;;5001108;28;20037;-76
2023/03/06 00:04:26;;;;;;;0.70;0.70;;;1.90;99.90;;;;;;5011638;28;20895;-76
2023/03/06 00:06:53;;;;;;;0.80;0.80;;;2.10;99.90;;;;;;5005003;28;20745;-76
2023/03/06 00:09:18;;;;;;;0.70;0.70;;;1.90;99.90;;;;;;5003415;28;20047;-76
2023/03/06 00:11:44;;;;;;;0.80;0.80;;;2.00;99.90;;;;;;4998600;28;20038;-76
2023/03/06 00:14:10;;;;;;;0.80;0.80;;;1.90;99.90;;;;;;4994989;28;20041;-76
2023/03/06 00:16:35;;;;;;;0.80;0.80;;;2.00;99.90;;;;;;5002680;28;20546;-77
2023/03/06 00:19:01;;;;;;;0.80;0.80;;;2.10;99.90;;;;;;5015128;28;20044;-76
2023/03/06 00:21:27;;;;;;;0.80;0.80;;;2.10;99.90;;;;;;5011023;28;20044;-76
2023/03/06 00:23:52;;;;;;;0.80;0.80;;;2.00;99.90;;;;;;5017835;28;20053;-76
2023/03/06 00:26:18;;;;;;;0.80;0.80;;;2.00;99.90;;;;;;5017838;28;20044;-76
2023/03/06 00:28:44;;;;;;;0.80;0.80;;;2.10;99.90;;;;;;5012349;28;20063;-76
2023/03/06 00:31:09;;;;;;;0.80;0.80;;;2.10;99.90;;;;;;5016399;28;20059;-77
2023/03/06 00:33:35;;;;;;;0.80;0.80;;;2.10;99.90;;;;;;5028547;28;20073;-76
2023/03/06 00:36:04;;;;;;;0.80;0.80;;;2.10;99.90;;;;;;5032397;28;20074;-76
2023/03/06 00:38:32;;;;;;;0.80;0.80;;;2.10;99.90;;;;;;5035387;28;20128;-76
2023/03/06 00:40:58;;;;;;;0.70;0.70;;;1.90;99.90;;;;;;5036781;28;20052;-76
2023/03/06 00:43:24;;;;;;;0.80;0.80;;;2.10;99.90;;;;;;5026561;28;20132;-76
2023/03/06 00:45:50;;;;;;;0.80;0.80;;;2.00;99.90;;;;;;5028828;28;20065;-76
2023/03/06 00:48:16;;;;;;;0.80;0.80;;;2.10;99.90;;;;;;5030457;28;20048;-76
2023/03/06 00:50:41;;;;;;;0.80;0.80;;;2.10;99.90;;;;;;5045487;28;20041;-76
2023/03/06 00:53:07;;;;;;;0.70;0.70;;;2.00;99.90;;;;;;5032683;28;20052;-76
2023/03/06 00:55:33;;;;;;;0.80;0.80;;;2.00;99.90;;;;;;5025509;28;20041;-76
2023/03/06 00:57:58;;;;;;;0.80;0.80;;;2.00;99.90;;;;;;5030828;28;20049;-76
2023/03/06 01:00:24;;;;;;;0.80;0.80;;;2.20;99.90;;;;;;5026813;28;20040;-76
2023/03/06 01:02:52;;;;;;;0.80;0.80;;;2.00;99.90;;;;;;5026622;28;20533;-76
2023/03/06 01:05:18;;;;;;;0.80;0.80;;;2.10;99.90;;;;;;5025824;28;20059;-76
2023/03/06 01:07:43;;;;;;;0.70;0.70;;;2.10;99.90;;;;;;5027920;28;20397;-76
2023/03/06 01:10:10;;;;;;;0.80;0.80;;;2.30;99.90;;;;;;5031840;28;20045;-76
2023/03/06 01:12:35;;;;;;;0.80;0.80;;;2.20;99.90;;;;;;5026961;28;20037;-76
2023/03/06 01:15:01;;;;;;;0.70;0.70;;;2.30;99.90;;;;;;5027199;28;20056;-76
2023/03/06 01:17:27;;;;;;;0.80;0.80;;;2.20;99.90;;;;;;5027803;28;20049;-76
2023/03/06 01:19:53;;;;;;;0.70;0.70;;;2.30;99.90;;;;;;5032894;28;20132;-75
2023/03/06 01:22:18;;;;;;;0.70;0.70;;;2.40;99.90;;;;;;5035404;28;20076;-76
2023/03/06 01:24:44;;;;;;;0.70;0.70;;;2.40;99.90;;;;;;5030198;28;20044;-76
2023/03/06 01:27:09;;;;;;;0.75;0.75;;;2.50;99.90;;;;;;5036158;28;20044;-76
2023/03/06 01:29:35;;;;;;;0.80;0.80;;;2.40;99.90;;;;;;5031714;28;20041;-76
2023/03/06 01:32:01;;;;;;;0.80;0.80;;;2.60;99.90;;;;;;5034368;28;20045;-76
2023/03/06 01:34:26;;;;;;;0.70;0.70;;;2.30;99.90;;;;;;5027136;28;20046;-76
2023/03/06 01:36:52;;;;;;;0.70;0.70;;;2.40;99.90;;;;;;5033806;28;20176;-76
2023/03/06 01:39:18;;;;;;;0.80;0.80;;;2.50;99.90;;;;;;5033757;28;20641;-76
2023/03/06 01:41:43;;;;;;;0.80;0.80;;;2.40;99.90;;;;;;5017506;28;20045;-76
2023/03/06 01:44:12;;;;;;;0.70;0.70;;;2.30;99.90;;;;;;5028629;28;20057;-76
2023/03/06 01:46:41;;;;;;;0.70;0.70;;;2.30;99.90;;;;;;5034033;28;20057;-76
2023/03/06 01:49:21;;;;;;;0.80;0.80;;;2.50;99.90;;;;;;5032739;28;20056;-76
2023/03/06 01:51:46;;;;;;;0.80;0.80;;;2.40;99.90;;;;;;5037620;28;20111;-76
2023/03/06 01:54:17;;;;;;;0.80;0.80;;;2.30;99.90;;;;;;5032765;28;20071;-76
2023/03/06 01:56:47;;;;;;;0.80;0.80;;;2.60;99.90;;;;;;5035652;28;20574;-76
2023/03/06 01:59:13;;;;;;;0.80;0.80;;;2.50;99.90;;;;;;5035821;28;20048;-76
2023/03/06 02:01:40;;;;;;;0.80;0.80;;;2.40;99.90;;;;;;5025714;28;20053;-76
2023/03/06 02:04:06;;;;;;;0.70;0.70;;;2.50;99.90;;;;;;5033492;28;20773;-76
2023/03/06 02:06:36;;;;;;;0.70;0.70;;;2.40;99.90;;;;;;5035172;28;20048;-76
2023/03/06 02:09:04;;;;;;;0.80;0.80;;;2.60;99.90;;;;;;5034989;28;20042;-76
2023/03/06 02:11:29;;;;;;;0.70;0.70;;;2.50;99.90;;;;;;5035302;28;20129;-76
2023/03/06 02:13:55;;;;;;;0.80;0.80;;;2.70;99.90;;;;;;5031714;28;20068;-76
2023/03/06 02:16:26;;;;;;;0.70;0.70;;;2.70;99.90;;;;;;5032693;28;20091;-76
2023/03/06 02:18:52;;;;;;;0.70;0.70;;;2.80;99.90;;;;;;5036342;28;20060;-76
2023/03/06 02:21:25;;;;;;;0.70;0.70;;;2.60;99.90;;;;;;5035852;28;20049;-76
2023/03/06 02:24:00;;;;;;;0.70;0.70;;;2.90;99.90;;;;;;5038152;28;20045;-77
2023/03/06 02:26:28;;;;;;;0.70;0.70;;;2.70;99.90;;;;;;5036726;28;20049;-76
2023/03/06 02:28:56;;;;;;;0.70;0.70;;;2.80;99.90;;;;;;5035694;28;20518;-76
2023/03/06 02:31:27;;;;;;;0.80;0.80;;;2.70;99.90;;;;;;5035997;28;20109;-76
2023/03/06 02:34:04;;;;;;;0.75;0.75;;;2.80;99.90;;;;;;5033456;28;20083;-76
2023/03/06 02:36:32;;;;;;;0.70;0.70;;;2.80;99.90;;;;;;5037325;28;20047;-76
2023/03/06 02:38:58;;;;;;;0.73;0.73;;;2.80;99.90;;;;;;5037649;28;20056;-76
2023/03/06 02:41:25;;;;;;;0.80;0.80;;;2.80;99.90;;;;;;5036880;28;20488;-76
2023/03/06 02:43:51;;;;;;;0.70;0.70;;;2.80;99.90;;;;;;5033345;28;20135;-76
2023/03/06 02:46:17;;;;;;;0.70;0.70;;;2.70;99.90;;;;;;5032422;28;20045;-76
2023/03/06 02:48:43;;;;;;;0.70;0.70;;;2.90;99.90;;;;;;5036351;28;20049;-76
2023/03/06 02:51:09;;;;;;;0.80;0.80;;;2.80;99.90;;;;;;5035773;28;20084;-76
2023/03/06 02:53:34;;;;;;;0.70;0.70;;;2.80;99.90;;;;;;5037346;28;20056;-75
2023/03/06 02:56:00;;;;;;;0.70;0.70;;;2.80;99.90;;;;;;5032915;28;20654;-76
2023/03/06 02:58:26;;;;;;;0.70;0.70;;;2.80;99.90;;;;;;5034838;28;20064;-76
2023/03/06 03:00:52;;;;;;;0.70;0.70;;;2.80;99.90;;;;;;5029602;28;20034;-76
2023/03/06 03:03:17;;;;;;;0.73;0.73;;;2.80;99.90;;;;;;5035520;28;20159;-76
2023/03/06 03:05:43;;;;;;;0.70;0.70;;;2.80;99.90;;;;;;5028200;28;20407;-76
2023/03/06 03:08:09;;;;;;;0.70;0.70;;;2.80;99.90;;;;;;5030899;28;20458;-77
2023/03/06 03:10:35;;;;;;;0.70;0.70;;;2.80;99.90;;;;;;5034506;28;20049;-76
2023/03/06 03:13:00;;;;;;;0.70;0.70;;;2.70;99.90;;;;;;5030779;28;20041;-76
2023/03/06 03:15:26;;;;;;;0.70;0.70;;;2.80;99.90;;;;;;5032477;28;20425;-76
2023/03/06 03:17:53;;;;;;;0.70;0.70;;;2.80;99.90;;;;;;5034528;28;20423;-76
2023/03/06 03:20:21;;;;;;;0.70;0.70;;;2.90;99.90;;;;;;5033599;28;20163;-76
2023/03/06 03:22:51;;;;;;;0.70;0.70;;;2.90;99.90;;;;;;5032205;28;20099;-76
2023/03/06 03:25:18;;;;;;;0.70;0.70;;;2.90;99.90;;;;;;5024702;28;20123;-77
2023/03/06 03:27:44;;;;;;;0.70;0.70;;;3.00;99.90;;;;;;5035266;28;20084;-76
2023/03/06 03:30:10;;;;;;;0.70;0.70;;;3.00;99.90;;;;;;5034185;28;20120;-76
2023/03/06 03:32:36;;;;;;;0.70;0.70;;;3.00;99.90;;;;;;5031865;28;20049;-77
2023/03/06 03:35:02;;;;;;;0.70;0.70;;;2.90;99.90;;;;;;5031156;28;20056;-77
2023/03/06 03:37:28;;;;;;;0.70;0.70;;;2.90;99.90;;;;;;5031135;28;20053;-76
2023/03/06 03:39:55;;;;;;;0.70;0.70;;;2.90;99.90;;;;;;5031941;28;20041;-76
2023/03/06 03:42:21;;;;;;;0.70;0.70;;;2.90;99.90;;;;;;5031382;28;20056;-76
2023/03/06 03:44:46;;;;;;;0.70;0.70;;;2.90;99.90;;;;;;5046256;28;20041;-76
2023/03/06 03:47:12;;;;;;;0.70;0.70;;;2.90;99.90;;;;;;5050901;28;20551;-76
2023/03/06 03:49:38;;;;;;;0.70;0.70;;;2.90;99.90;;;;;;5032230;28;20697;-76
2023/03/06 03:52:04;;;;;;;0.70;0.70;;;2.90;99.90;;;;;;5031258;28;20043;-76
2023/03/06 03:54:30;;;;;;;0.70;0.70;;;3.10;99.90;;;;;;5032439;28;20065;-76
2023/03/06 03:56:55;;;;;;;0.63;0.63;;;3.10;99.90;;;;;;5037829;28;20526;-75
2023/03/06 03:59:21;;;;;;;0.70;0.70;;;2.90;99.90;;;;;;5035888;28;20198;-76
2023/03/06 04:01:48;;;;;;;0.70;0.70;;;3.10;99.90;;;;;;5028144;28;20053;-76
2023/03/06 04:04:14;;;;;;;0.70;0.70;;;3.10;99.90;;;;;;5030986;28;20138;-76
2023/03/06 04:06:40;;;;;;;0.70;0.70;;;3.00;99.90;;;;;;5037149;28;20110;-76
2023/03/06 04:09:05;;;;;;;0.80;0.80;;;3.00;99.90;;;;;;5038541;28;20479;-76
2023/03/06 04:11:31;;;;;;;0.70;0.70;;;3.00;99.90;;;;;;5036972;28;20083;-76
2023/03/06 04:13:57;;;;;;;0.70;0.70;;;3.00;99.90;;;;;;5034863;28;20045;-76
2023/03/06 04:16:23;;;;;;;0.70;0.70;;;3.20;99.90;;;;;;5029216;28;20410;-76
2023/03/06 04:18:48;;;;;;;0.70;0.70;;;3.10;99.90;;;;;;5050064;28;20518;-76
2023/03/06 04:21:14;;;;;;;0.70;0.70;;;3.10;99.90;;;;;;5036970;28;20049;-76
2023/03/06 04:23:40;;;;;;;0.70;0.70;;;3.10;99.90;;;;;;5038394;28;20120;-76
2023/03/06 04:26:06;;;;;;;0.70;0.70;;;2.90;99.90;;;;;;5032108;28;20139;-76
2023/03/06 04:28:32;;;;;;;0.70;0.70;;;3.10;99.90;;;;;;5035428;28;20482;-76
2023/03/06 04:31:00;;;;;;;0.80;0.80;;;3.00;99.90;;;;;;5037481;28;20703;-76
2023/03/06 04:33:26;;;;;;;0.70;0.70;;;3.20;99.90;;;;;;5033521;28;20041;-76
2023/03/06 04:35:52;;;;;;;0.70;0.70;;;3.00;99.90;;;;;;5030790;28;20049;-76
2023/03/06 04:38:18;;;;;;;0.70;0.70;;;3.20;99.90;;;;;;5034735;28;20403;-76
2023/03/06 04:40:43;;;;;;;0.70;0.70;;;3.10;99.90;;;;;;5031203;28;20145;-76
2023/03/06 04:43:09;;;;;;;0.70;0.70;;;3.20;99.90;;;;;;5035059;28;20051;-76
2023/03/06 04:45:35;;;;;;;0.70;0.70;;;3.00;99.90;;;;;;5031706;28;20037;-76
2023/03/06 04:48:00;;;;;;;0.70;0.70;;;3.10;99.90;;;;;;5037633;28;20036;-76
2023/03/06 04:50:31;;;;;;;0.73;0.73;;;3.30;99.90;;;;;;5031117;28;20522;-76
2023/03/06 04:53:00;;;;;;;0.70;0.70;;;3.10;99.90;;;;;;5051595;28;20041;-76
2023/03/06 04:55:27;;;;;;;0.70;0.70;;;3.30;99.90;;;;;;5028908;28;20695;-76
2023/03/06 04:57:53;;;;;;;0.70;0.70;;;3.10;99.90;;;;;;5038596;28;20053;-76
2023/03/06 05:00:28;;;;;;;0.80;0.80;;;3.10;99.90;;;;;;5040886;28;20072;-76
2023/03/06 05:02:53;;;;;;;0.70;0.70;;;3.20;99.90;;;;;;5039025;28;20125;-76
2023/03/06 05:05:19;;;;;;;0.70;0.70;;;3.20;99.90;;;;;;5048901;28;20476;-76
2023/03/06 05:07:45;;;;;;;0.80;0.80;;;3.40;99.90;;;;;;5037581;28;20059;-76
2023/03/06 05:10:13;;;;;;;0.80;0.80;;;3.40;99.90;;;;;;5055217;28;20124;-76
2023/03/06 05:12:39;;;;;;;0.70;0.70;;;3.50;99.90;;;;;;5037354;28;20045;-76
2023/03/06 05:15:06;;;;;;;0.70;0.70;;;3.30;99.90;;;;;;5033825;28;20072;-78
2023/03/06 05:17:31;;;;;;;0.70;0.70;;;3.30;99.90;;;;;;5038649;28;20041;-77
2023/03/06 05:19:57;;;;;;;0.70;0.70;;;3.20;99.90;;;;;;5020560;28;20665;-76
2023/03/06 05:22:23;;;;;;;0.70;0.70;;;3.10;99.90;;;;;;5035332;28;20191;-76
2023/03/06 05:24:49;;;;;;;0.70;0.70;;;3.20;99.90;;;;;;5024947;28;20502;-76
2023/03/06 05:27:14;;;;;;;0.70;0.70;;;3.10;99.90;;;;;;5022575;28;20049;-77
2023/03/06 05:29:40;;;;;;;0.70;0.70;;;3.20;99.90;;;;;;5024133;28;20043;-76
2023/03/06 05:32:06;;;;;;;0.70;0.70;;;3.00;99.90;;;;;;5022491;28;20132;-76
2023/03/06 05:34:32;;;;;;;0.80;0.80;;;3.00;99.90;;;;;;5023243;28;20677;-77
2023/03/06 05:36:59;;;;;;;0.70;0.70;;;2.90;99.90;;;;;;5027708;28;20041;-76
2023/03/06 05:39:26;;;;;;;0.70;0.70;;;3.00;99.90;;;;;;5024046;28;20056;-77
2023/03/06 05:41:51;;;;;;;0.70;0.70;;;2.90;99.90;;;;;;5021046;28;20056;-77
2023/03/06 05:44:17;;;;;;;0.70;0.70;;;2.90;99.90;;;;;;5016965;28;20767;-77
2023/03/06 05:46:43;;;;;;;0.73;0.73;;;2.90;99.90;;;;;;5021333;28;20487;-76
2023/03/06 05:49:08;;;;;;;0.70;0.70;;;2.70;99.90;;;;;;5021522;28;20132;-77
2023/03/06 05:51:34;;;;;;;0.70;0.70;;;3.00;99.90;;;;;;5022921;28;20045;-76
2023/03/06 05:53:59;;;;;;;0.70;0.70;;;2.50;99.90;;;;;;5014369;28;20123;-77
2023/03/06 05:56:25;;;;;;;0.70;0.70;;;2.70;99.90;;;;;;5024450;28;20825;-77
2023/03/06 05:58:51;;;;;;;0.80;0.80;;;2.70;99.90;;;;;;5004337;28;20049;-77
2023/03/06 06:01:19;;;;;;;0.70;0.70;;;2.70;99.90;;;;;;5006312;28;20718;-77
2023/03/06 06:03:45;;;;;;;0.70;0.70;;;2.60;99.90;;;;;;5008899;28;20053;-77
2023/03/06 06:06:12;;;;;;;0.70;0.70;;;2.60;99.90;;;;;;5023162;28;20037;-77
2023/03/06 06:08:39;;;;;;;0.73;0.73;;;2.50;99.90;;;;;;5019976;28;20102;-77
2023/03/06 06:11:06;;;;;;;0.73;0.73;;;2.40;99.90;;;;;;5024908;28;20183;-77
2023/03/06 06:13:32;;;;;;;0.70;0.70;;;2.40;99.90;;;;;;5024909;28;20073;-77
2023/03/06 06:15:58;;;;;;;0.70;0.70;;;2.40;99.90;;;;;;5039048;28;20111;-77
2023/03/06 06:18:24;;;;;;;0.70;0.70;;;2.40;99.90;;;;;;5017853;28;20473;-77
2023/03/06 06:20:50;;;;;;;0.80;0.80;;;2.20;99.90;;;;;;4996462;28;20045;-77
2023/03/06 06:23:15;;;;;;;0.70;0.70;;;2.20;99.90;;;;;;5035816;28;20066;-77
2023/03/06 06:25:41;;;;;;;0.70;0.70;;;2.00;99.90;;;;;;5012775;28;20045;-77
2023/03/06 06:28:07;;;;;;;0.70;0.70;;;2.20;99.90;;;;;;5018784;28;20146;-77
2023/03/06 06:30:33;;;;;;;0.80;0.80;;;2.10;99.90;;;;;;5027714;28;20072;-77
2023/03/06 06:32:59;;;;;;;0.80;0.80;;;1.90;99.90;;;;;;5049307;28;20092;-76
2023/03/06 06:35:25;;;;;;;0.75;0.75;;;2.10;99.90;;;;;;5030644;28;20045;-76
2023/03/06 06:37:51;;;;;;;0.80;0.80;;;2.00;99.90;;;;;;5033756;28;20110;-77
2023/03/06 06:40:17;;;;;;;0.80;0.80;;;2.00;99.90;;;;;;5035919;28;20610;-77
2023/03/06 06:42:42;;;;;;;0.80;0.80;;;2.20;99.90;;;;;;5036581;28;20052;-77
2023/03/06 06:45:09;;;;;;;0.70;0.70;;;2.00;99.90;;;;;;5032372;28;20045;-77
2023/03/06 06:47:39;;;;;;;0.70;0.70;;;1.90;99.90;;;;;;5037627;28;20052;-77
2023/03/06 06:50:07;;;;;;;0.73;0.73;;;1.90;99.90;;;;;;5036295;28;20123;-77
2023/03/06 06:52:34;;;;;;;0.80;0.80;;;1.90;99.90;;;;;;5037312;28;20091;-77
2023/03/06 06:55:00;;;;;;;0.80;0.80;;;2.00;99.90;;;;;;5032928;28;20055;-77
2023/03/06 06:57:25;;;;;;;0.70;0.70;;;1.80;99.90;;;;;;5032827;28;20057;-77
2023/03/06 06:59:51;;;;;;;0.80;0.80;;;1.90;99.90;;;;;;5031459;28;20498;-77
2023/03/06 07:02:17;;;;;;;0.80;0.80;;;2.10;99.90;;;;;;5036720;28;20049;-77
2023/03/06 07:04:43;;;;;;;0.80;0.80;;;2.10;99.90;;;;;;5032435;28;20047;-76
2023/03/06 07:07:09;;;;;;;0.80;0.80;;;2.20;99.90;;;;;;5038132;28;20037;-77
2023/03/06 07:09:36;;;;;;;0.80;0.80;;;2.50;99.90;;;;;;5036940;28;20044;-77
2023/03/06 07:12:01;;;;;;;0.80;0.80;;;2.50;99.90;;;;;;5037699;28;20053;-76
2023/03/06 07:14:27;;;;;;;0.80;0.80;;;2.60;99.90;;;;;;5033427;28;20045;-77
2023/03/06 07:16:53;;;;;;;0.70;0.70;;;2.80;99.90;;;;;;5037151;28;20052;-77
2023/03/06 07:19:18;;;;;;;0.70;0.70;;;2.90;99.90;;;;;;5033963;28;20548;-77
2023/03/06 07:21:44;;;;;;;0.70;0.70;;;3.00;99.90;;;;;;5037801;28;20033;-76
2023/03/06 07:24:09;;;;;;;0.70;0.70;;;3.00;99.90;;;;;;5032444;28;20138;-76
2023/03/06 07:26:35;;;;;;;0.75;0.75;;;3.10;99.90;;;;;;5034088;28;20503;-77
2023/03/06 07:29:03;;;;;;;0.70;0.70;;;3.30;99.90;;;;;;5031999;28;20114;-77
2023/03/06 07:31:28;;;;;;;0.77;0.77;;;3.30;99.90;;;;;;5034639;28;20060;-76
2023/03/06 07:33:54;;;;;;;0.70;0.70;;;3.30;99.90;;;;;;5030744;28;20033;-77
2023/03/06 07:36:22;;;;;;;0.70;0.70;;;3.30;99.90;;;;;;5032508;28;21726;-77
2023/03/06 07:38:48;;;;;;;0.80;0.80;;;3.10;99.90;;;;;;5036741;28;20056;-76
2023/03/06 07:41:15;;;;;;;0.70;0.70;;;3.30;99.90;;;;;;5050506;28;20595;-77
2023/03/06 07:43:42;;;;;;;0.70;0.70;;;3.50;99.90;;;;;;5029869;28;20056;-77
2023/03/06 07:46:09;;;;;;;0.70;0.70;;;3.40;99.90;;;;;;5034300;28;20565;-76
2023/03/06 07:48:36;;;;;;;0.70;0.70;;;3.50;99.90;;;;;;5035443;28;20049;-76
2023/03/06 07:51:05;;;;;;;0.70;0.70;;;3.60;99.90;;;;;;5037754;28;20444;-76
2023/03/06 07:53:33;;;;;;;0.70;0.70;;;3.60;99.90;;;;;;5040168;28;20072;-77
2023/03/06 07:55:58;;;;;;;0.70;0.70;;;3.60;99.90;;;;;;5035879;28;20146;-76
2023/03/06 07:58:25;;;;;;;0.70;0.70;;;3.40;99.90;;;;;;5039108;28;20044;-77
2023/03/06 08:00:50;;;;;;;0.70;0.70;;;3.50;99.90;;;;;;5040006;28;20258;-76
2023/03/06 08:03:16;;;;;;;0.70;0.70;;;3.50;99.90;;;;;;5039290;28;20045;-76
2023/03/06 08:05:43;;;;;;;0.70;0.70;;;3.60;99.90;;;;;;5036346;28;20044;-76
2023/03/06 08:08:10;;;;;;;0.70;0.70;;;3.70;99.90;;;;;;5054792;28;20049;-76
2023/03/06 08:10:36;;;;;;;0.70;0.70;;;3.70;99.90;;;;;;5036556;28;20051;-76
2023/03/06 08:13:02;;;;;;;0.70;0.70;;;3.80;99.90;;;;;;5039836;28;20127;-76
2023/03/06 08:15:27;;;;;;;0.70;0.70;;;4.10;99.90;;;;;;5033422;28;20048;-76
2023/03/06 08:17:53;;;;;;;0.70;0.70;;;4.40;99.90;;;;;;5038419;28;20049;-77
2023/03/06 08:20:19;;;;;;;0.70;0.70;;;4.40;99.90;;;;;;5036458;28;20059;-76
2023/03/06 08:22:45;;;;;;;0.70;0.70;;;4.40;99.90;;;;;;5038303;28;20106;-76
2023/03/06 08:25:14;;;;;;;0.70;0.70;;;4.10;99.90;;;;;;5050025;28;20041;-76
2023/03/06 08:27:40;;;;;;;0.70;0.70;;;4.10;99.90;;;;;;5037867;28;20047;-76
2023/03/06 08:30:07;;;;;;;0.70;0.70;;;4.10;99.90;;;;;;5038036;28;20037;-76
2023/03/06 08:32:36;;;;;;;0.70;0.70;;;4.40;99.90;;;;;;5036535;28;20045;-76
2023/03/06 08:35:03;;;;;;;0.60;0.60;;;4.50;99.90;;;;;;5035477;28;20048;-76
2023/03/06 08:37:29;;;;;;;0.70;0.70;;;4.90;99.90;;;;;;5037902;28;20188;-76
2023/03/06 08:39:55;;;;;;;0.70;0.70;;;5.20;99.90;;;;;;5038715;28;20116;-76
2023/03/06 08:42:20;;;;;;;0.70;0.70;;;5.10;99.90;;;;;;5038589;28;20045;-77
2023/03/06 08:44:46;;;;;;;0.60;0.60;;;5.40;99.90;;;;;;5035905;28;20587;-77
2023/03/06 08:47:12;;;;;;;0.70;0.70;;;5.40;99.90;;;;;;5054440;28;20132;-76
2023/03/06 08:49:38;;;;;;;0.60;0.60;;;5.10;99.90;;;;;;5035907;28;20095;-75
2023/03/06 08:52:05;;;;;;;0.70;0.70;;;5.50;99.90;;;;;;5037335;28;20124;-76
2023/03/06 08:54:34;;;;;;;0.70;0.70;;;5.60;99.90;;;;;;5036418;28;20041;-77
2023/03/06 08:57:01;;;;;;;0.65;0.65;;;5.30;99.90;;;;;;5038175;28;20057;-76
2023/03/06 08:59:26;;;;;;;0.70;0.70;;;5.30;99.90;;;;;;5037346;28;20053;-76
2023/03/06 09:01:52;;;;;;;0.70;0.70;;;5.40;99.90;;;;;;5038877;28;20461;-76
2023/03/06 09:04:18;;;;;;;0.65;0.65;;;6.00;99.90;;;;;;5024743;28;20438;-77
2023/03/06 09:06:44;;;;;;;0.70;0.70;;;6.00;99.90;;;;;;5026325;28;20048;-76
2023/03/06 09:09:10;;;;;;;0.70;0.70;;;6.20;99.90;;;;;;5024292;28;20064;-76
2023/03/06 09:11:36;;;;;;;0.60;0.60;;;6.30;99.90;;;;;;5031731;28;20048;-76
2023/03/06 09:14:03;;;;;;;0.70;0.70;;;5.90;99.90;;;;;;5037340;28;20535;-76
2023/03/06 09:16:30;;;;;;;0.60;0.60;;;5.90;99.90;;;;;;5031167;28;20049;-76
2023/03/06 09:18:56;;;;;;;0.70;0.70;;;5.90;99.90;;;;;;5052766;28;20053;-76
2023/03/06 09:21:23;;;;;;;0.60;0.60;;;6.30;99.90;;;;;;5035295;28;20056;-76
2023/03/06 09:23:50;;;;;;;0.60;0.60;;;6.20;99.90;;;;;;5034983;28;20068;-76
2023/03/06 09:26:15;;;;;;;0.70;0.70;;;6.60;99.90;;;;;;5034314;28;20041;-76
2023/03/06 09:28:41;;;;;;;0.60;0.60;;;7.10;99.90;;;;;;5036515;28;20048;-76
2023/03/06 09:31:09;;;;;;;0.60;0.60;;;7.00;99.90;;;;;;5038443;28;20106;-76
2023/03/06 09:33:35;;;;;;;0.70;0.70;;;6.90;99.90;;;;;;5035422;28;20045;-76
2023/03/06 09:36:01;;;;;;;0.63;0.63;;;6.50;99.90;;;;;;5036379;28;20057;-76
2023/03/06 09:38:27;;;;;;;0.60;0.60;;;6.50;99.90;;;;;;5016274;28;20086;-76
2023/03/06 09:41:17;;;;;;;0.60;0.60;;;6.80;99.90;;;;;;5038177;28;20156;-76
2023/03/06 09:43:49;;;;;;;0.60;0.60;;;6.90;99.90;;;;;;5041989;28;20051;-76
2023/03/06 09:46:33;;;;;;;0.60;0.60;;;6.50;99.90;;;;;;5037382;28;20454;-76
2023/03/06 09:49:29;;;;;;;0.60;0.60;;;6.80;99.90;;;;;;5042178;28;20044;-76
2023/03/06 09:52:30;;;;;;;0.65;0.65;;;7.00;99.90;;;;;;5030039;28;20057;-76
2023/03/06 09:55:11;;;;;;;0.60;0.60;;;6.70;99.90;;;;;;5031555;28;20155;-76
2023/03/06 09:58:00;;;;;;;0.60;0.60;;;7.10;99.90;;;;;;5039810;28;20473;-76
2023/03/06 10:00:29;;;;;;;0.60;0.60;;;6.80;99.90;;;;;;5034482;28;20060;-76
2023/03/06 10:03:26;;;;;;;0.70;0.70;;;6.40;99.90;;;;;;5040497;28;20048;-77
2023/03/06 10:06:01;;;;;;;0.60;0.60;;;6.70;99.90;;;;;;5037885;28;20658;-76
2023/03/06 10:08:34;;;;;;;0.60;0.60;;;7.00;99.90;;;;;;5038356;28;20049;-76
2023/03/06 10:11:04;;;;;;;0.60;0.60;;;6.80;99.90;;;;;;5040264;28;20053;-76
2023/03/06 10:13:49;;;;;;;0.60;0.60;;;6.60;99.90;;;;;;5041825;28;20166;-76
2023/03/06 10:16:26;;;;;;;0.60;0.60;;;6.80;99.90;;;;;;5034563;28;20049;-76
2023/03/06 10:19:00;;;;;;;0.70;0.70;;;7.10;99.90;;;;;;5039524;28;20577;-76
2023/03/06 10:21:52;;;;;;;0.60;0.60;;;7.30;99.90;;;;;;5041062;28;20693;-76
2023/03/06 10:24:53;;;;;;;0.68;0.68;;;7.60;99.90;;;;;;5029670;28;20053;-76
2023/03/06 10:27:35;;;;;;;0.60;0.60;;;7.50;99.90;;;;;;5038046;28;20051;-76
2023/03/06 10:30:35;;;;;;;0.70;0.70;;;6.90;99.90;;;;;;5037839;28;20052;-76
2023/03/06 10:33:12;;;;;;;0.60;0.60;;;7.10;99.90;;;;;;5037189;28;20387;-76
2023/03/06 10:35:54;;;;;;;0.60;0.60;;;7.10;99.90;;;;;;5035617;28;20273;-76
2023/03/06 10:38:21;;;;;;;0.60;0.60;;;6.90;99.90;;;;;;5040659;28;20099;-76
2023/03/06 10:41:08;;;;;;;0.60;0.60;;;7.30;99.90;;;;;;5039760;28;20056;-76
2023/03/06 10:43:36;;;;;;;0.60;0.60;;;7.00;99.90;;;;;;5038566;28;20056;-76
2023/03/06 10:46:02;;;;;;;0.60;0.60;;;6.90;99.90;;;;;;5035661;28;20045;-76
2023/03/06 10:48:29;;;;;;;0.60;0.60;;;6.90;99.90;;;;;;5037641;28;20135;-76
2023/03/06 10:51:18;;;;;;;0.60;0.60;;;6.60;99.90;;;;;;5038995;28;20051;-76
2023/03/06 10:53:59;;;;;;;0.60;0.60;;;6.50;99.90;;;;;;5036786;28;20041;-76
2023/03/06 10:56:36;;;;;;;0.60;0.60;;;6.30;99.90;;;;;;5037497;28;20115;-76
2023/03/06 10:59:24;;;;;;;0.60;0.60;;;7.00;99.90;;;;;;5037492;28;20044;-76
2023/03/06 11:01:55;;;;;;;0.60;0.60;;;7.60;99.90;;;;;;5039209;28;20081;-76
2023/03/06 11:04:30;;;;;;;0.60;0.60;;;8.10;99.90;;;;;;5033858;28;20151;-76
2023/03/06 11:07:19;;;;;;;0.70;0.70;;;8.20;99.90;;;;;;5038003;28;20049;-76
2023/03/06 11:09:57;;;;;;;0.63;0.63;;;8.20;99.90;;;;;;5037825;28;20052;-76
2023/03/06 11:12:36;;;;;;;0.60;0.60;;;7.90;99.90;;;;;;5038590;28;20330;-76
2023/03/06 11:15:13;;;;;;;0.60;0.60;;;7.70;99.90;;;;;;5036574;28;20086;-76
2023/03/06 11:17:54;;;;;;;0.60;0.60;;;7.80;99.90;;;;;;5036535;28;20040;-76
2023/03/06 11:20:42;;;;;;;0.60;0.60;;;7.40;99.90;;;;;;5036628;28;20049;-76
2023/03/06 11:23:27;;;;;;;0.60;0.60;;;7.90;99.90;;;;;;5040690;28;20068;-76
2023/03/06 11:25:57;;;;;;;0.60;0.60;;;8.20;99.90;;;;;;5032024;28;20876;-76
2023/03/06 11:28:45;;;;;;;0.60;0.60;;;8.20;99.90;;;;;;5037854;28;20049;-75
2023/03/06 11:31:14;;;;;;;0.70;0.70;;;8.40;99.90;;;;;;5040176;28;20045;-76
2023/03/06 11:33:45;;;;;;;0.60;0.60;;;8.50;99.90;;;;;;5035900;28;20486;-76
2023/03/06 11:36:14;;;;;;;0.60;0.60;;;8.30;99.90;;;;;;5036435;28;20036;-76
2023/03/06 11:38:51;;;;;;;0.60;0.60;;;8.10;99.90;;;;;;5040605;28;20045;-76
2023/03/06 11:41:49;;;;;;;0.60;0.60;;;8.00;99.90;;;;;;5039900;28;20437;-75
2023/03/06 11:44:29;;;;;;;0.60;0.60;;;8.50;99.90;;;;;;5036103;28;20037;-76
2023/03/06 11:47:12;;;;;;;0.60;0.60;;;8.50;99.90;;;;;;5036240;28;20043;-76
2023/03/06 11:50:10;;;;;;;0.65;0.65;;;8.90;99.90;;;;;;5037353;28;20526;-76
2023/03/06 11:53:06;;;;;;;0.60;0.60;;;9.00;99.90;;;;;;5037575;28;20049;-76
2023/03/06 11:55:37;;;;;;;0.60;0.60;;;9.20;99.90;;;;;;5034245;28;20106;-76
2023/03/06 11:58:12;;;;;;;0.60;0.60;;;9.70;99.90;;;;;;5034866;28;20075;-76
2023/03/06 12:01:09;;;;;;;0.60;0.60;;;9.90;99.90;;;;;;5037168;28;20133;-76
2023/03/06 12:04:01;;;;;;;0.60;0.60;;;9.60;99.90;;;;;;5036572;28;20060;-76
2023/03/06 12:06:52;;;;;;;0.60;0.60;;;9.20;99.90;;;;;;5023583;28;20139;-75
2023/03/06 12:09:39;;;;;;;0.60;0.60;;;9.00;99.90;;;;;;5038793;28;20402;-76
2023/03/06 12:12:14;;;;;;;0.55;0.55;;;8.80;99.90;;;;;;5037718;28;20059;-76
2023/03/06 12:15:18;;;;;;;0.60;0.60;;;8.60;99.90;;;;;;5033495;28;20053;-76
2023/03/06 12:17:47;;;;;;;;;;;8.80;99.90;;;;;;5028168;28;20607;-76
2023/03/06 12:20:25;;;;;;;0.68;0.68;;;8.60;99.90;;;;;;5038955;28;19928;-76
2023/03/06 12:23:12;;;;;;;0.60;0.60;;;8.50;99.90;;;;;;5037209;28;20080;-76
2023/03/06 12:25:55;;;;;;;0.63;0.63;;;8.30;99.90;;;;;;5013280;28;20057;-76
2023/03/06 12:28:27;;;;;;;0.60;0.60;;;8.20;99.90;;;;;;5036138;28;20051;-76
2023/03/06 12:31:14;;;;;;;0.60;0.60;;;8.10;99.90;;;;;;5036863;28;20154;-76
2023/03/06 12:33:50;;;;;;;0.60;0.60;;;8.00;99.90;;;;;;5035056;28;20052;-76
2023/03/06 12:36:28;;;;;;;0.65;0.65;;;7.90;99.90;;;;;;5033033;28;20079;-76
2023/03/06 12:39:06;;;;;;;0.60;0.60;;;7.90;99.90;;;;;;5034912;28;20398;-76
2023/03/06 12:42:04;;;;;;;0.60;0.60;;;8.00;99.90;;;;;;5038511;28;20207;-75
2023/03/06 12:44:33;;;;;;;0.60;0.60;;;8.20;99.90;;;;;;5032849;28;20044;-76
2023/03/06 12:47:08;;;;;;;0.70;0.70;;;8.60;99.90;;;;;;5040417;28;20616;-76
2023/03/06 12:49:37;;;;;;;0.60;0.60;;;9.30;99.90;;;;;;5023545;28;20525;-76
2023/03/06 12:52:07;;;;;;;0.60;0.60;;;9.90;99.90;;;;;;5038820;28;20045;-76
2023/03/06 12:54:39;;;;;;;0.60;0.60;;;9.50;99.90;;;;;;5024692;28;20049;-76
2023/03/06 12:57:07;;;;;;;0.60;0.60;;;9.60;99.90;;;;;;5028298;28;20056;-76
2023/03/06 12:59:45;;;;;;;0.60;0.60;;;9.70;99.90;;;;;;5038602;28;20135;-76
2023/03/06 13:02:35;;;;;;;0.60;0.60;;;9.30;99.90;;;;;;5028038;28;20041;-76
2023/03/06 13:05:19;;;;;;;0.60;0.60;;;9.10;99.90;;;;;;5024241;28;20052;-76
2023/03/06 13:08:13;;;;;;;0.65;0.65;;;8.80;99.90;;;;;;5027234;28;20041;-76
2023/03/06 13:10:41;;;;;;;0.65;0.65;;;8.70;99.90;;;;;;5020747;28;20507;-76
2023/03/06 13:13:30;;;;;;;0.70;0.70;;;8.60;99.90;;;;;;5021856;28;20072;-76